createdAt,value
2023-04-15T00:01:51.122Z,99497.00
2023-04-15T00:04:18.002Z,99486.00
2023-04-15T00:06:51.584Z,99479.00
2023-04-15T00:09:18.649Z,99482.00
2023-04-15T00:11:46.228Z,99481.00
2023-04-15T00:14:13.670Z,99480.00
2023-04-15T00:16:40.212Z,99471.00
2023-04-15T00:19:06.758Z,99470.00
2023-04-15T00:21:33.422Z,99473.00
2023-04-15T00:23:59.997Z,99475.00
2023-04-15T00:26:26.978Z,99471.00
2023-04-15T00:28:53.784Z,99481.00
2023-04-15T00:31:20.813Z,99473.00
2023-04-15T00:33:47.821Z,99472.00
2023-04-15T00:36:14.581Z,99473.00
2023-04-15T00:38:41.364Z,99473.00
2023-04-15T00:41:09.012Z,99472.00
2023-04-15T00:43:35.667Z,99482.00
2023-04-15T00:46:04.712Z,99479.00
2023-04-15T00:48:32.219Z,99475.00
2023-04-15T00:50:58.836Z,99468.00
2023-04-15T00:53:25.320Z,99471.00
2023-04-15T00:55:51.940Z,99476.00
2023-04-15T00:58:18.446Z,99452.00
2023-04-15T01:00:45.027Z,99460.00
2023-04-15T01:03:11.736Z,99459.00
2023-04-15T01:05:39.182Z,99462.00
2023-04-15T01:08:06.363Z,99466.00
2023-04-15T01:10:33.371Z,99451.00
2023-04-15T01:13:00.113Z,99455.00
2023-04-15T01:15:27.460Z,99461.00
2023-04-15T01:17:54.173Z,99451.00
2023-04-15T01:20:22.076Z,99453.00
2023-04-15T01:22:49.402Z,99460.00
2023-04-15T01:25:20.360Z,99449.00
2023-04-15T01:27:47.596Z,99454.00
2023-04-15T01:30:14.144Z,99448.00
2023-04-15T01:32:40.769Z,99453.00
2023-04-15T01:35:07.706Z,99454.00
2023-04-15T01:37:34.583Z,99450.00
2023-04-15T01:40:01.142Z,99458.00
2023-04-15T01:42:28.305Z,99448.00
2023-04-15T01:44:54.942Z,99455.00
2023-04-15T01:47:21.626Z,99442.00
2023-04-15T01:49:48.402Z,99448.00
2023-04-15T01:52:15.712Z,99450.00
2023-04-15T01:54:42.426Z,99452.00
2023-04-15T01:57:09.301Z,99442.00
2023-04-15T01:59:36.174Z,99444.00
2023-04-15T02:02:02.878Z,99433.00
2023-04-15T02:04:29.460Z,99443.00
2023-04-15T02:06:59.779Z,99441.00
2023-04-15T02:09:26.261Z,99448.00
2023-04-15T02:11:54.208Z,99439.00
2023-04-15T02:14:20.906Z,99432.00
2023-04-15T02:16:47.585Z,99444.00
2023-04-15T02:19:15.794Z,99436.00
2023-04-15T02:21:42.340Z,99441.00
2023-04-15T02:24:08.960Z,99446.00
2023-04-15T02:26:35.527Z,99450.00
2023-04-15T02:29:02.248Z,99446.00
2023-04-15T02:31:29.014Z,99444.00
2023-04-15T02:33:55.560Z,99448.00
2023-04-15T02:36:23.784Z,99443.00
2023-04-15T02:38:50.640Z,99441.00
2023-04-15T02:41:17.673Z,99438.00
2023-04-15T02:43:45.702Z,99449.00
2023-04-15T02:46:14.762Z,99444.00
2023-04-15T02:48:41.805Z,99436.00
2023-04-15T02:51:16.777Z,99448.00
2023-04-15T02:53:43.523Z,99449.00
2023-04-15T02:56:10.183Z,99451.00
2023-04-15T02:58:36.807Z,99445.00
2023-04-15T03:01:03.483Z,99452.00
2023-04-15T03:03:30.780Z,99445.00
2023-04-15T03:05:57.470Z,99439.00
2023-04-15T03:08:24.194Z,99456.00
2023-04-15T03:10:52.515Z,99453.00
2023-04-15T03:13:19.880Z,99457.00
2023-04-15T03:15:47.660Z,99451.00
2023-04-15T03:18:14.512Z,99460.00
2023-04-15T03:20:41.518Z,99453.00
2023-04-15T03:23:08.442Z,99457.00
2023-04-15T03:25:37.281Z,99458.00
2023-04-15T03:28:06.099Z,99458.00
2023-04-15T03:30:33.285Z,99456.00
2023-04-15T03:32:59.923Z,99456.00
2023-04-15T03:35:26.726Z,99450.00
2023-04-15T03:37:53.287Z,99444.00
2023-04-15T03:40:21.413Z,99456.00
2023-04-15T03:42:47.919Z,99454.00
2023-04-15T03:45:14.598Z,99446.00
2023-04-15T03:47:41.500Z,99454.00
2023-04-15T03:50:08.373Z,99461.00
2023-04-15T03:52:34.980Z,99454.00
2023-04-15T03:55:01.624Z,99461.00
2023-04-15T03:57:28.151Z,99466.00
2023-04-15T03:59:54.693Z,99461.00
2023-04-15T04:02:21.589Z,99459.00
2023-04-15T04:04:48.380Z,99465.00
2023-04-15T04:07:16.602Z,99466.00
2023-04-15T04:09:43.184Z,99473.00
2023-04-15T04:12:09.756Z,99458.00
2023-04-15T04:14:36.368Z,99472.00
2023-04-15T04:17:03.005Z,99473.00
2023-04-15T04:19:29.964Z,99469.00
2023-04-15T04:21:56.867Z,99467.00
2023-04-15T04:24:23.514Z,99470.00
2023-04-15T04:26:50.098Z,99473.00
2023-04-15T04:29:16.765Z,99469.00
2023-04-15T04:31:43.448Z,99465.00
2023-04-15T04:34:10.056Z,99468.00
2023-04-15T04:36:36.575Z,99468.00
2023-04-15T04:39:03.427Z,99474.00
2023-04-15T04:41:30.217Z,99479.00
2023-04-15T04:43:56.735Z,99475.00
2023-04-15T04:46:23.786Z,99472.00
2023-04-15T04:48:50.351Z,99472.00
2023-04-15T04:51:16.885Z,99485.00
2023-04-15T04:53:43.415Z,99480.00
2023-04-15T04:56:09.904Z,99491.00
2023-04-15T04:58:36.543Z,99485.00
2023-04-15T05:01:03.456Z,99488.00
2023-04-15T05:03:30.159Z,99491.00
2023-04-15T05:05:56.874Z,99487.00
2023-04-15T05:08:23.512Z,99487.00
2023-04-15T05:10:50.040Z,99503.00
2023-04-15T05:13:16.636Z,99498.00
2023-04-15T05:15:43.279Z,99504.00
2023-04-15T05:18:10.006Z,99499.00
2023-04-15T05:20:36.532Z,99519.00
2023-04-15T05:23:03.097Z,99511.00
2023-04-15T05:25:29.601Z,99515.00
2023-04-15T05:27:56.271Z,99512.00
2023-04-15T05:30:22.827Z,99515.00
2023-04-15T05:32:49.921Z,99516.00
2023-04-15T05:35:16.565Z,99499.00
2023-04-15T05:37:43.343Z,99511.00
2023-04-15T05:40:10.693Z,99508.00
2023-04-15T05:42:37.433Z,99500.00
2023-04-15T05:45:05.563Z,99492.00
2023-04-15T05:47:32.249Z,99501.00
2023-04-15T05:49:59.230Z,99484.00
2023-04-15T05:52:26.274Z,99500.00
2023-04-15T05:54:52.853Z,99508.00
2023-04-15T05:57:19.431Z,99514.00
2023-04-15T05:59:46.125Z,99507.00
2023-04-15T06:02:13.353Z,99511.00
2023-04-15T06:04:40.161Z,99516.00
2023-04-15T06:07:06.861Z,99506.00
2023-04-15T06:09:33.769Z,99506.00
2023-04-15T06:12:01.772Z,99495.00
2023-04-15T06:14:28.469Z,99504.00
2023-04-15T06:16:55.347Z,99508.00
2023-04-15T06:19:22.166Z,99519.00
2023-04-15T06:21:48.921Z,99509.00
2023-04-15T06:24:15.613Z,99502.00
2023-04-15T06:26:42.502Z,99518.00
2023-04-15T06:29:09.189Z,99515.00
2023-04-15T06:31:35.878Z,99504.00
2023-04-15T06:34:02.740Z,99522.00
2023-04-15T06:36:29.338Z,99520.00
2023-04-15T06:38:57.058Z,99533.00
2023-04-15T06:41:23.642Z,99529.00
2023-04-15T06:43:50.248Z,99549.00
2023-04-15T06:46:17.129Z,99543.00
2023-04-15T06:48:44.348Z,99548.00
2023-04-15T06:51:11.736Z,99544.00
2023-04-15T06:53:41.079Z,99553.00
2023-04-15T06:56:09.547Z,99557.00
2023-04-15T06:58:36.502Z,99549.00
2023-04-15T07:01:04.357Z,99550.00
2023-04-15T07:03:32.773Z,99562.00
2023-04-15T07:05:59.782Z,99568.00
2023-04-15T07:08:26.438Z,99565.00
2023-04-15T07:10:54.158Z,99572.00
2023-04-15T07:13:20.704Z,99569.00
2023-04-15T07:15:47.559Z,99585.00
2023-04-15T07:18:14.284Z,99585.00
2023-04-15T07:20:41.126Z,99588.00
2023-04-15T07:23:08.018Z,99573.00
2023-04-15T07:25:34.804Z,99581.00
2023-04-15T07:28:02.537Z,99585.00
2023-04-15T07:30:29.692Z,99578.00
2023-04-15T07:32:56.609Z,99587.00
2023-04-15T07:35:23.556Z,99585.00
2023-04-15T07:37:50.492Z,99578.00
2023-04-15T07:40:17.155Z,99586.00
2023-04-15T07:42:43.985Z,99586.00
2023-04-15T07:45:11.385Z,99594.00
2023-04-15T07:47:38.116Z,99583.00
2023-04-15T07:50:05.054Z,99590.00
2023-04-15T07:52:35.305Z,99582.00
2023-04-15T07:55:01.842Z,99591.00
2023-04-15T07:57:28.436Z,99597.00
2023-04-15T07:59:55.070Z,99606.00
2023-04-15T08:02:22.385Z,99594.00
2023-04-15T08:04:49.252Z,99600.00
2023-04-15T08:07:16.137Z,99601.00
2023-04-15T08:09:43.333Z,99608.00
2023-04-15T08:12:12.500Z,99604.00
2023-04-15T08:14:39.870Z,99607.00
2023-04-15T08:17:07.618Z,99611.00
2023-04-15T08:19:34.128Z,99602.00
2023-04-15T08:22:00.667Z,99608.00
2023-04-15T08:24:27.428Z,99609.00
2023-04-15T08:26:54.132Z,99616.00
2023-04-15T08:29:20.772Z,99618.00
2023-04-15T08:31:47.809Z,99625.00
2023-04-15T08:34:15.290Z,99617.00
2023-04-15T08:36:42.837Z,99619.00
2023-04-15T08:39:09.787Z,99615.00
2023-04-15T08:41:41.662Z,99624.00
2023-04-15T08:44:08.485Z,99623.00
2023-04-15T08:46:35.179Z,99627.00
2023-04-15T08:49:04.853Z,99632.00
2023-04-15T08:51:32.717Z,99626.00
2023-04-15T08:54:00.114Z,99627.00
2023-04-15T08:56:28.283Z,99630.00
2023-04-15T08:58:55.607Z,99625.00
2023-04-15T09:01:22.952Z,99633.00
2023-04-15T09:03:50.521Z,99624.00
2023-04-15T09:06:18.033Z,99620.00
2023-04-15T09:08:45.136Z,99630.00
2023-04-15T09:11:12.412Z,99635.00
2023-04-15T09:13:39.376Z,99630.00
2023-04-15T09:16:07.120Z,99635.00
2023-04-15T09:18:35.511Z,99640.00
2023-04-15T09:21:13.109Z,99638.00
2023-04-15T09:23:42.465Z,99642.00
2023-04-15T09:26:09.205Z,99643.00
2023-04-15T09:28:42.392Z,99646.00
2023-04-15T09:31:10.379Z,99652.00
2023-04-15T09:33:54.723Z,99651.00
2023-04-15T09:36:21.338Z,99652.00
2023-04-15T09:38:59.290Z,99649.00
2023-04-15T09:41:27.036Z,99663.00
2023-04-15T09:43:53.672Z,99668.00
2023-04-15T09:46:20.760Z,99667.00
2023-04-15T09:48:47.395Z,99666.00
2023-04-15T09:51:14.135Z,99674.00
2023-04-15T09:53:41.202Z,99673.00
2023-04-15T09:56:08.848Z,99671.00
2023-04-15T09:58:37.042Z,99677.00
2023-04-15T10:01:05.416Z,99684.00
2023-04-15T10:03:35.652Z,99687.00
2023-04-15T10:06:03.591Z,99668.00
2023-04-15T10:08:32.981Z,99685.00
2023-04-15T10:11:01.881Z,99686.00
2023-04-15T10:13:33.050Z,99664.00
2023-04-15T10:16:07.494Z,99687.00
2023-04-15T10:18:36.070Z,99688.00
2023-04-15T10:21:02.645Z,99695.00
2023-04-15T10:23:29.748Z,99695.00
2023-04-15T10:25:57.575Z,99692.00
2023-04-15T10:28:24.682Z,99693.00
2023-04-15T10:30:52.709Z,99696.00
2023-04-15T10:33:24.468Z,99699.00
2023-04-15T10:35:52.482Z,99693.00
2023-04-15T10:38:31.557Z,99691.00
2023-04-15T10:41:14.091Z,99698.00
2023-04-15T10:43:46.606Z,99699.00
2023-04-15T10:46:13.206Z,99701.00
2023-04-15T10:48:39.812Z,99706.00
2023-04-15T10:51:09.351Z,99705.00
2023-04-15T10:53:37.844Z,99713.00
2023-04-15T10:56:05.482Z,99707.00
2023-04-15T10:58:42.009Z,99708.00
2023-04-15T11:01:09.096Z,99717.00
2023-04-15T11:03:40.801Z,99715.00
2023-04-15T11:06:07.719Z,99710.00
2023-04-15T11:08:53.723Z,99721.00
2023-04-15T11:11:21.031Z,99729.00
2023-04-15T11:13:50.176Z,99723.00
2023-04-15T11:16:17.058Z,99728.00
2023-04-15T11:18:54.391Z,99725.00
2023-04-15T11:21:25.164Z,99732.00
2023-04-15T11:23:51.984Z,99733.00
2023-04-15T11:26:18.862Z,99739.00
2023-04-15T11:28:46.721Z,99737.00
2023-04-15T11:31:18.149Z,99742.00
2023-04-15T11:33:46.601Z,99747.00
2023-04-15T11:36:13.774Z,99745.00
2023-04-15T11:38:49.799Z,99738.00
2023-04-15T11:41:19.907Z,99741.00
2023-04-15T11:43:46.971Z,99740.00
2023-04-15T11:46:13.858Z,99754.00
2023-04-15T11:48:44.101Z,99755.00
2023-04-15T11:51:11.628Z,99757.00
2023-04-15T11:53:46.713Z,99763.00
2023-04-15T11:56:21.514Z,99772.00
2023-04-15T11:58:50.852Z,99768.00
2023-04-15T12:01:17.794Z,99759.00
2023-04-15T12:03:49.275Z,99769.00
2023-04-15T12:06:23.636Z,99763.00
2023-04-15T12:09:00.309Z,99771.00
2023-04-15T12:11:27.285Z,99776.00
2023-04-15T12:14:00.210Z,99769.00
2023-04-15T12:16:28.539Z,99768.00
2023-04-15T12:18:57.057Z,99778.00
2023-04-15T12:21:25.348Z,99771.00
2023-04-15T12:23:53.740Z,99766.00
2023-04-15T12:26:42.126Z,99787.00
2023-04-15T12:29:09.029Z,99782.00
2023-04-15T12:31:39.207Z,99786.00
2023-04-15T12:34:10.903Z,99778.00
2023-04-15T12:36:37.987Z,99785.00
2023-04-15T12:39:05.215Z,99789.00
2023-04-15T12:41:32.654Z,99796.00
2023-04-15T12:43:59.523Z,99801.00
2023-04-15T12:46:27.061Z,99799.00
2023-04-15T12:48:53.692Z,99798.00
2023-04-15T12:51:23.688Z,99796.00
2023-04-15T12:53:50.867Z,99789.00
2023-04-15T12:56:18.025Z,99807.00
2023-04-15T12:58:44.559Z,99817.00
2023-04-15T13:01:11.587Z,99821.00
2023-04-15T13:03:38.258Z,99818.00
2023-04-15T13:06:05.890Z,99822.00
2023-04-15T13:08:32.805Z,99812.00
2023-04-15T13:10:59.350Z,99825.00
2023-04-15T13:13:26.407Z,99820.00
2023-04-15T13:15:53.151Z,99820.00
2023-04-15T13:18:20.017Z,99831.00
2023-04-15T13:20:46.681Z,99823.00
2023-04-15T13:23:13.268Z,99836.00
2023-04-15T13:25:39.815Z,99831.00
2023-04-15T13:28:06.500Z,99833.00
2023-04-15T13:30:32.999Z,99833.00
2023-04-15T13:32:59.592Z,99835.00
2023-04-15T13:35:26.364Z,99825.00
2023-04-15T13:37:54.160Z,99844.00
2023-04-15T13:40:20.858Z,99846.00
2023-04-15T13:42:47.521Z,99853.00
2023-04-15T13:45:14.095Z,99847.00
2023-04-15T13:47:40.845Z,99849.00
2023-04-15T13:50:07.822Z,99859.00
2023-04-15T13:52:37.456Z,99861.00
2023-04-15T13:55:07.215Z,99868.00
2023-04-15T13:57:45.459Z,99867.00
2023-04-15T14:00:13.027Z,99866.00
2023-04-15T14:02:40.463Z,99867.00
2023-04-15T14:05:07.345Z,99868.00
2023-04-15T14:07:33.903Z,99868.00
2023-04-15T14:10:00.784Z,99871.00
2023-04-15T14:12:27.330Z,99874.00
2023-04-15T14:14:53.946Z,99873.00
2023-04-15T14:17:20.521Z,99879.00
2023-04-15T14:19:47.066Z,99867.00
2023-04-15T14:22:13.767Z,99888.00
2023-04-15T14:24:40.430Z,99891.00
2023-04-15T14:27:08.597Z,99884.00
2023-04-15T14:29:35.407Z,99897.00
2023-04-15T14:32:11.035Z,99898.00
2023-04-15T14:34:39.231Z,99887.00
2023-04-15T14:37:05.868Z,99913.00
2023-04-15T14:39:32.456Z,99907.00
2023-04-15T14:41:59.148Z,99905.00
2023-04-15T14:44:25.760Z,99912.00
2023-04-15T14:46:52.377Z,99918.00
2023-04-15T14:49:18.994Z,99916.00
2023-04-15T14:51:46.394Z,99913.00
2023-04-15T14:54:12.974Z,99913.00
2023-04-15T14:56:39.430Z,99917.00
2023-04-15T14:59:06.135Z,99916.00
2023-04-15T15:01:33.774Z,99917.00
2023-04-15T15:04:00.683Z,99924.00
2023-04-15T15:06:27.739Z,99919.00
2023-04-15T15:08:54.279Z,99930.00
2023-04-15T15:11:20.984Z,99919.00
2023-04-15T15:13:47.648Z,99928.00
2023-04-15T15:16:14.821Z,99938.00
2023-04-15T15:18:41.536Z,99940.00
2023-04-15T15:21:08.113Z,99939.00
2023-04-15T15:23:34.672Z,99939.00
2023-04-15T15:26:01.309Z,99941.00
2023-04-15T15:28:27.905Z,99950.00
2023-04-15T15:30:54.671Z,99952.00
2023-04-15T15:33:21.534Z,99952.00
2023-04-15T15:35:48.071Z,99953.00
2023-04-15T15:38:14.815Z,99956.00
2023-04-15T15:40:41.368Z,99958.00
2023-04-15T15:43:07.958Z,99959.00
2023-04-15T15:45:35.540Z,99955.00
2023-04-15T15:48:02.293Z,99953.00
2023-04-15T15:50:29.174Z,99956.00
2023-04-15T15:52:56.064Z,99963.00
2023-04-15T15:55:23.355Z,99965.00
2023-04-15T15:57:50.049Z,99973.00
2023-04-15T16:00:17.113Z,99973.00
2023-04-15T16:05:13.370Z,99973.00
2023-04-15T16:07:39.986Z,99988.00
2023-04-15T16:10:07.252Z,99984.00
2023-04-15T16:12:35.039Z,99985.00
2023-04-15T16:15:01.926Z,99982.00
2023-04-15T16:17:28.509Z,99988.00
2023-04-15T16:19:58.066Z,99986.00
2023-04-15T16:22:27.683Z,99989.00
2023-04-15T16:24:54.318Z,99992.00
2023-04-15T16:27:21.774Z,99988.00
2023-04-15T16:29:48.439Z,99998.00
2023-04-15T16:32:15.040Z,99989.00
2023-04-15T16:34:41.713Z,100003.00
2023-04-15T16:37:08.314Z,100001.00
2023-04-15T16:39:35.264Z,99994.00
2023-04-15T16:42:02.644Z,100010.00
2023-04-15T16:44:29.417Z,100017.00
2023-04-15T16:46:56.565Z,100013.00
2023-04-15T16:49:23.097Z,100019.00
2023-04-15T16:51:49.600Z,100012.00
2023-04-15T16:54:16.135Z,100016.00
2023-04-15T16:56:42.625Z,100020.00
2023-04-15T16:59:09.165Z,100027.00
2023-04-15T17:01:35.951Z,100020.00
2023-04-15T17:04:02.569Z,100024.00
2023-04-15T17:06:29.364Z,100030.00
2023-04-15T17:08:56.091Z,100025.00
2023-04-15T17:11:22.686Z,100039.00
2023-04-15T17:13:49.350Z,100039.00
2023-04-15T17:16:15.908Z,100036.00
2023-04-15T17:18:42.428Z,100039.00
2023-04-15T17:21:08.958Z,100048.00
2023-04-15T17:23:35.532Z,100048.00
2023-04-15T17:26:02.086Z,100055.00
2023-04-15T17:28:31.735Z,100059.00
2023-04-15T17:30:58.394Z,100059.00
2023-04-15T17:33:59.940Z,100053.00
2023-04-15T17:36:12.959Z,100066.00
2023-04-15T17:38:39.456Z,100064.00
2023-04-15T17:41:07.814Z,100066.00
2023-04-15T17:43:34.377Z,100083.00
2023-04-15T17:46:00.998Z,100078.00
2023-04-15T17:48:27.533Z,100079.00
2023-04-15T17:50:54.143Z,100082.00
2023-04-15T17:53:20.802Z,100085.00
2023-04-15T17:55:47.336Z,100083.00
2023-04-15T17:58:13.870Z,100087.00
2023-04-15T18:00:40.703Z,100096.00
2023-04-15T18:03:07.474Z,100097.00
2023-04-15T18:05:34.170Z,100094.00
2023-04-15T18:08:00.735Z,100102.00
2023-04-15T18:10:27.296Z,100105.00
2023-04-15T18:12:53.818Z,100114.00
2023-04-15T18:15:20.339Z,100115.00
2023-04-15T18:17:47.801Z,100122.00
2023-04-15T18:20:14.544Z,100119.00
2023-04-15T18:22:42.731Z,100138.00
2023-04-15T18:25:09.537Z,100141.00
2023-04-15T18:27:38.892Z,100129.00
2023-04-15T18:30:09.218Z,100134.00
2023-04-15T18:32:35.954Z,100139.00
2023-04-15T18:35:05.273Z,100145.00
2023-04-15T18:37:32.538Z,100146.00
2023-04-15T18:39:59.236Z,100154.00
2023-04-15T18:42:26.051Z,100152.00
2023-04-15T18:44:53.125Z,100155.00
2023-04-15T18:47:19.789Z,100152.00
2023-04-15T18:49:46.500Z,100161.00
2023-04-15T18:52:13.179Z,100154.00
2023-04-15T18:54:39.786Z,100161.00
2023-04-15T18:57:06.672Z,100165.00
2023-04-15T18:59:33.761Z,100172.00
2023-04-15T19:02:01.218Z,100167.00
2023-04-15T19:04:29.347Z,100171.00
2023-04-15T19:06:56.358Z,100169.00
2023-04-15T19:09:23.139Z,100171.00
2023-04-15T19:11:49.846Z,100184.00
2023-04-15T19:14:17.618Z,100183.00
2023-04-15T19:16:44.313Z,100182.00
2023-04-15T19:19:14.322Z,100171.00
2023-04-15T19:21:41.387Z,100187.00
2023-04-15T19:24:08.124Z,100185.00
2023-04-15T19:26:34.628Z,100199.00
2023-04-15T19:29:01.211Z,100202.00
2023-04-15T19:31:27.790Z,100202.00
2023-04-15T19:33:54.279Z,100206.00
2023-04-15T19:36:21.291Z,100202.00
2023-04-15T19:38:47.958Z,100203.00
2023-04-15T19:41:15.606Z,100193.00
2023-04-15T19:43:42.170Z,100210.00
2023-04-15T19:46:08.830Z,100215.00
2023-04-15T19:48:36.830Z,100210.00
2023-04-15T19:51:03.452Z,100222.00
2023-04-15T19:53:30.196Z,100213.00
2023-04-15T19:55:56.840Z,100218.00
2023-04-15T19:58:23.356Z,100220.00
2023-04-15T20:00:49.954Z,100222.00
2023-04-15T20:03:17.527Z,100216.00
2023-04-15T20:05:44.518Z,100222.00
2023-04-15T20:08:11.248Z,100202.00
2023-04-15T20:10:38.007Z,100219.00
2023-04-15T20:13:04.589Z,100222.00
2023-04-15T20:15:31.595Z,100227.00
2023-04-15T20:17:58.208Z,100209.00
2023-04-15T20:20:24.986Z,100221.00
2023-04-15T20:22:52.872Z,100212.00
2023-04-15T20:25:19.600Z,100226.00
2023-04-15T20:27:46.482Z,100226.00
2023-04-15T20:30:13.064Z,100233.00
2023-04-15T20:32:39.597Z,100238.00
2023-04-15T20:35:06.938Z,100241.00
2023-04-15T20:37:37.882Z,100224.00
2023-04-15T20:40:04.789Z,100237.00
2023-04-15T20:42:34.573Z,100240.00
2023-04-15T20:45:01.311Z,100237.00
2023-04-15T20:47:28.126Z,100227.00
2023-04-15T20:49:54.735Z,100237.00
2023-04-15T20:52:21.766Z,100250.00
2023-04-15T20:54:48.247Z,100244.00
2023-04-15T20:57:14.839Z,100244.00
2023-04-15T20:59:41.369Z,100246.00
2023-04-15T21:02:08.034Z,100245.00
2023-04-15T21:04:34.851Z,100255.00
2023-04-15T21:07:01.429Z,100261.00
2023-04-15T21:09:28.167Z,100246.00
2023-04-15T21:12:01.085Z,100244.00
2023-04-15T21:14:29.237Z,100251.00
2023-04-15T21:16:58.019Z,100263.00
2023-04-15T21:19:24.605Z,100261.00
2023-04-15T21:21:51.167Z,100276.00
2023-04-15T21:24:17.745Z,100271.00
2023-04-15T21:26:44.300Z,100269.00
2023-04-15T21:29:11.873Z,100285.00
2023-04-15T21:31:38.789Z,100280.00
2023-04-15T21:34:05.475Z,100287.00
2023-04-15T21:36:32.123Z,100280.00
2023-04-15T21:38:58.723Z,100293.00
2023-04-15T21:41:25.777Z,100294.00
2023-04-15T21:43:53.061Z,100299.00
2023-04-15T21:46:22.128Z,100300.00
2023-04-15T21:48:51.506Z,100287.00
2023-04-15T21:51:18.030Z,100305.00
2023-04-15T21:53:44.698Z,100309.00
2023-04-15T21:56:11.987Z,100307.00
2023-04-15T21:58:38.563Z,100313.00
2023-04-15T22:01:05.657Z,100302.00
2023-04-15T22:03:34.063Z,100304.00
2023-04-15T22:06:02.235Z,100315.00
2023-04-15T22:08:29.146Z,100314.00
2023-04-15T22:10:55.866Z,100315.00
2023-04-15T22:13:22.354Z,100314.00
2023-04-15T22:15:48.888Z,100315.00
2023-04-15T22:18:15.575Z,100325.00
2023-04-15T22:20:42.178Z,100317.00
2023-04-15T22:23:09.794Z,100330.00
2023-04-15T22:25:37.271Z,100330.00
2023-04-15T22:28:07.378Z,100314.00
2023-04-15T22:30:39.794Z,100320.00
2023-04-15T22:33:07.130Z,100339.00
2023-04-15T22:35:34.464Z,100338.00
2023-04-15T22:38:01.584Z,100345.00
2023-04-15T22:40:28.963Z,100338.00
2023-04-15T22:42:55.732Z,100344.00
2023-04-15T22:45:22.378Z,100342.00
2023-04-15T22:47:48.961Z,100350.00
2023-04-15T22:50:16.058Z,100352.00
2023-04-15T22:52:45.973Z,100344.00
2023-04-15T22:55:12.981Z,100355.00
2023-04-15T22:57:39.644Z,100356.00
2023-04-15T23:00:07.321Z,100358.00
2023-04-15T23:02:34.793Z,100367.00
2023-04-15T23:05:04.176Z,100363.00
2023-04-15T23:07:38.554Z,100372.00
2023-04-15T23:10:05.704Z,100373.00
2023-04-15T23:12:32.341Z,100371.00
2023-04-15T23:14:58.878Z,100374.00
2023-04-15T23:17:26.736Z,100382.00
2023-04-15T23:19:53.748Z,100371.00
2023-04-15T23:22:20.702Z,100371.00
2023-04-15T23:24:47.355Z,100374.00
2023-04-15T23:27:13.960Z,100375.00
2023-04-15T23:29:40.765Z,100369.00
2023-04-15T23:32:07.295Z,100377.00
2023-04-15T23:34:33.847Z,100377.00
2023-04-15T23:37:00.362Z,100382.00
2023-04-15T23:39:27.053Z,100378.00
2023-04-15T23:41:53.669Z,100384.00
2023-04-15T23:44:20.293Z,100381.00
2023-04-15T23:46:47.020Z,100386.00
2023-04-15T23:49:13.703Z,100377.00
2023-04-15T23:51:40.829Z,100376.00
2023-04-15T23:54:07.385Z,100387.00
2023-04-15T23:56:33.918Z,100379.00
2023-04-15T23:59:00.542Z,100387.00
